createdAt,value
2018-07-01T00:00:38.644Z,92.12
2018-07-01T00:01:38.630Z,92.02
2018-07-01T00:02:38.615Z,92.32
2018-07-01T00:03:38.601Z,92.12
2018-07-01T00:04:38.588Z,92.80
2018-07-01T00:05:38.576Z,92.56
2018-07-01T00:06:38.556Z,93.13
2018-07-01T00:07:38.545Z,92.89
2018-07-01T00:08:38.528Z,92.94
2018-07-01T00:09:38.513Z,92.75
2018-07-01T00:10:38.544Z,93.52
2018-07-01T00:11:38.484Z,93.13
2018-07-01T00:12:38.469Z,93.13
2018-07-01T00:13:38.456Z,93.23
2018-07-01T00:14:38.440Z,93.23
2018-07-01T00:15:38.426Z,93.81
2018-07-01T00:16:38.411Z,94.00
2018-07-01T00:17:38.397Z,93.71
2018-07-01T00:18:38.381Z,94.00
2018-07-01T00:19:38.367Z,93.71
2018-07-01T00:20:38.354Z,94.00
2018-07-01T00:21:38.342Z,93.91
2018-07-01T00:22:38.323Z,94.78
2018-07-01T00:23:38.309Z,94.29
2018-07-01T00:24:38.294Z,93.91
2018-07-01T00:25:38.285Z,94.58
2018-07-01T00:26:38.266Z,94.48
2018-07-01T00:27:38.251Z,94.92
2018-07-01T00:28:38.235Z,94.73
2018-07-01T00:29:38.221Z,94.54
2018-07-01T00:30:38.209Z,94.58
2018-07-01T00:31:38.192Z,94.68
2018-07-01T00:32:38.177Z,95.31
2018-07-01T00:33:38.162Z,95.31
2018-07-01T00:34:38.147Z,94.92
2018-07-01T00:35:38.133Z,96.27
2018-07-01T00:36:38.119Z,95.89
2018-07-01T00:37:38.106Z,95.98
2018-07-01T00:38:38.088Z,95.98
2018-07-01T00:39:38.075Z,96.75
2018-07-01T00:40:38.059Z,96.46
2018-07-01T00:41:38.045Z,96.37
2018-07-01T00:42:38.029Z,96.37
2018-07-01T00:43:38.016Z,95.98
2018-07-01T00:44:38.000Z,96.27
2018-07-01T00:45:37.986Z,96.66
2018-07-01T00:46:37.972Z,96.46
2018-07-01T00:47:38.707Z,96.56
2018-07-01T00:48:37.941Z,96.56
2018-07-01T00:49:37.927Z,96.75
2018-07-01T00:50:37.911Z,96.56
2018-07-01T00:51:37.898Z,97.24
2018-07-01T00:52:37.881Z,96.61
2018-07-01T00:53:37.868Z,97.24
2018-07-01T00:54:37.853Z,96.99
2018-07-01T00:55:37.837Z,97.04
2018-07-01T00:56:37.823Z,97.24
2018-07-01T00:57:37.807Z,97.19
2018-07-01T00:58:37.791Z,97.76
2018-07-01T00:59:37.778Z,97.96
2018-07-01T01:00:37.762Z,98.15
2018-07-01T01:01:37.747Z,98.15
2018-07-01T01:02:37.732Z,98.34
2018-07-01T01:03:37.718Z,98.54
2018-07-01T01:04:37.703Z,98.34
2018-07-01T01:05:37.688Z,98.05
2018-07-01T01:06:37.672Z,98.34
2018-07-01T01:07:37.658Z,98.72
2018-07-01T01:08:37.643Z,98.44
2018-07-01T01:09:37.628Z,98.19
2018-07-01T01:10:37.613Z,98.58
2018-07-01T01:11:37.598Z,98.19
2018-07-01T01:12:37.583Z,98.00
2018-07-01T01:13:37.569Z,98.49
2018-07-01T01:14:37.553Z,98.29
2018-07-01T01:15:37.538Z,98.58
2018-07-01T01:16:37.523Z,98.39
2018-07-01T01:17:37.510Z,99.26
2018-07-01T01:18:37.492Z,98.58
2018-07-01T01:19:37.478Z,98.58
2018-07-01T01:20:37.464Z,99.44
2018-07-01T01:21:37.448Z,99.26
2018-07-01T01:22:37.435Z,99.44
2018-07-01T01:23:37.418Z,99.35
2018-07-01T01:24:37.403Z,99.26
2018-07-01T01:25:37.389Z,98.97
2018-07-01T01:26:37.372Z,98.97
2018-07-01T01:27:37.357Z,99.06
2018-07-01T01:28:37.343Z,99.06
2018-07-01T01:29:37.327Z,99.26
2018-07-01T01:30:37.311Z,99.84
2018-07-01T01:31:37.300Z,99.30
2018-07-01T01:32:37.281Z,99.49
2018-07-01T01:33:37.267Z,99.59
2018-07-01T01:34:37.251Z,99.40
2018-07-01T01:35:37.235Z,99.88
2018-07-01T01:36:37.220Z,99.98
2018-07-01T01:37:37.204Z,99.88
2018-07-01T01:38:37.188Z,99.69
2018-07-01T01:39:37.176Z,99.59
2018-07-01T01:40:37.160Z,99.49
2018-07-01T01:41:37.148Z,99.59
2018-07-01T01:42:37.129Z,99.69
2018-07-01T01:43:37.114Z,99.40
2018-07-01T01:44:37.097Z,99.78
2018-07-01T01:45:37.083Z,99.40
2018-07-01T01:46:37.067Z,99.69
2018-07-01T01:47:37.052Z,99.30
2018-07-01T01:48:37.036Z,99.40
2018-07-01T01:49:37.021Z,99.21
2018-07-01T01:50:37.005Z,99.49
2018-07-01T01:51:36.989Z,99.11
2018-07-01T01:52:36.974Z,99.30
2018-07-01T01:53:36.959Z,99.54
2018-07-01T01:54:36.945Z,99.06
2018-07-01T01:55:36.928Z,98.92
2018-07-01T01:56:36.913Z,99.11
2018-07-01T01:57:36.896Z,98.87
2018-07-01T01:58:36.881Z,98.92
2018-07-01T01:59:36.865Z,99.06
2018-07-01T02:00:36.849Z,98.87
2018-07-01T02:01:36.835Z,98.96
2018-07-01T02:02:36.818Z,98.96
2018-07-01T02:03:36.803Z,99.35
2018-07-01T02:04:36.787Z,98.77
2018-07-01T02:05:36.772Z,98.77
2018-07-01T02:06:36.756Z,99.06
2018-07-01T02:07:36.742Z,98.96
2018-07-01T02:08:36.725Z,99.26
2018-07-01T02:09:36.709Z,99.35
2018-07-01T02:10:36.694Z,99.11
2018-07-01T02:11:36.685Z,98.63
2018-07-01T02:12:36.663Z,98.87
2018-07-01T02:13:36.647Z,99.54
2018-07-01T02:14:36.631Z,99.06
2018-07-01T02:15:36.615Z,99.35
2018-07-01T02:16:36.606Z,99.44
2018-07-01T02:17:36.584Z,99.16
2018-07-01T02:18:36.572Z,99.21
2018-07-01T02:19:36.553Z,99.11
2018-07-01T02:20:36.538Z,99.73
2018-07-01T02:21:36.521Z,89.21
2018-07-01T02:22:36.505Z,89.30
2018-07-01T02:23:36.489Z,89.35
2018-07-01T02:24:36.474Z,88.73
2018-07-01T02:25:36.459Z,89.40
2018-07-01T02:26:36.443Z,88.73
2018-07-01T02:27:36.427Z,88.82
2018-07-01T02:28:36.412Z,88.92
2018-07-01T02:29:36.395Z,88.82
2018-07-01T02:30:36.380Z,89.01
2018-07-01T02:31:36.363Z,88.92
2018-07-01T02:32:36.354Z,88.73
2018-07-01T02:33:36.332Z,89.40
2018-07-01T02:34:36.315Z,88.73
2018-07-01T02:35:36.299Z,88.92
2018-07-01T02:36:36.285Z,89.40
2018-07-01T02:37:36.325Z,88.82
2018-07-01T02:38:36.252Z,88.63
2018-07-01T02:39:36.236Z,88.63
2018-07-01T02:40:36.224Z,88.73
2018-07-01T02:41:36.209Z,88.73
2018-07-01T02:42:36.188Z,89.01
2018-07-01T02:43:36.178Z,89.11
2018-07-01T02:44:36.156Z,88.82
2018-07-01T02:45:36.142Z,88.82
2018-07-01T02:46:36.123Z,88.63
2018-07-01T02:47:36.109Z,89.01
2018-07-01T02:48:36.093Z,88.92
2018-07-01T02:49:36.075Z,88.92
2018-07-01T02:50:36.060Z,88.82
2018-07-01T02:51:36.045Z,88.78
2018-07-01T02:52:36.028Z,88.82
2018-07-01T02:53:36.026Z,89.07
2018-07-01T02:54:35.996Z,89.01
2018-07-01T02:55:35.980Z,88.78
2018-07-01T02:56:35.964Z,88.82
2018-07-01T02:57:35.948Z,89.07
2018-07-01T02:58:35.931Z,88.82
2018-07-01T02:59:35.917Z,88.97
2018-07-01T03:00:35.900Z,88.87
2018-07-01T03:01:35.885Z,88.97
2018-07-01T03:02:36.619Z,88.97
2018-07-01T03:03:35.852Z,88.78
2018-07-01T03:04:35.837Z,88.78
2018-07-01T03:05:35.821Z,88.78
2018-07-01T03:06:35.804Z,89.16
2018-07-01T03:07:35.787Z,89.07
2018-07-01T03:08:35.771Z,89.16
2018-07-01T03:09:35.755Z,88.87
2018-07-01T03:10:35.739Z,89.16
2018-07-01T03:11:35.722Z,88.78
2018-07-01T03:12:35.705Z,89.16
2018-07-01T03:13:36.442Z,89.07
2018-07-01T03:14:35.673Z,88.97
2018-07-01T03:15:35.657Z,88.78
2018-07-01T03:16:35.641Z,89.16
2018-07-01T03:17:35.626Z,89.16
2018-07-01T03:18:35.608Z,88.97
2018-07-01T03:19:35.592Z,89.16
2018-07-01T03:20:35.577Z,88.49
2018-07-01T03:21:35.560Z,89.16
2018-07-01T03:22:35.542Z,88.78
2018-07-01T03:23:35.526Z,88.20
2018-07-01T03:24:35.513Z,88.87
2018-07-01T03:25:35.495Z,88.45
2018-07-01T03:26:35.477Z,88.97
2018-07-01T03:27:35.460Z,88.59
2018-07-01T03:28:35.444Z,88.64
2018-07-01T03:29:35.428Z,88.78
2018-07-01T03:30:35.413Z,88.54
2018-07-01T03:31:35.401Z,88.30
2018-07-01T03:32:35.380Z,88.35
2018-07-01T03:33:35.362Z,88.06
2018-07-01T03:34:35.344Z,88.06
2018-07-01T03:35:35.330Z,88.73
2018-07-01T03:36:35.311Z,88.16
2018-07-01T03:37:35.296Z,88.16
2018-07-01T03:38:35.279Z,88.35
2018-07-01T03:39:35.262Z,88.93
2018-07-01T03:40:35.245Z,88.25
2018-07-01T03:41:35.229Z,88.06
2018-07-01T03:42:35.212Z,87.87
2018-07-01T03:43:35.195Z,88.25
2018-07-01T03:44:35.179Z,88.25
2018-07-01T03:45:35.162Z,88.25
2018-07-01T03:46:35.151Z,88.35
2018-07-01T03:47:35.128Z,88.64
2018-07-01T03:48:35.112Z,88.54
2018-07-01T03:49:35.097Z,88.45
2018-07-01T03:50:35.829Z,88.06
2018-07-01T03:51:35.063Z,88.25
2018-07-01T03:52:35.046Z,88.35
2018-07-01T03:53:35.029Z,88.16
2018-07-01T03:54:35.012Z,88.35
2018-07-01T03:55:34.996Z,88.64
2018-07-01T03:56:34.977Z,88.06
2018-07-01T03:57:35.016Z,88.45
2018-07-01T03:58:34.945Z,88.25
2018-07-01T03:59:34.926Z,88.45
2018-07-01T04:00:34.952Z,88.35
2018-07-01T04:01:34.893Z,88.35
2018-07-01T04:02:34.876Z,88.54
2018-07-01T04:03:34.858Z,88.35
2018-07-01T04:04:34.854Z,89.12
2018-07-01T04:05:34.826Z,88.54
2018-07-01T04:06:34.807Z,88.35
2018-07-01T04:07:34.791Z,88.54
2018-07-01T04:08:34.773Z,88.64
2018-07-01T04:09:34.759Z,88.83
2018-07-01T04:10:34.740Z,89.12
2018-07-01T04:11:34.722Z,88.45
2018-07-01T04:12:34.706Z,88.25
2018-07-01T04:13:34.688Z,89.02
2018-07-01T04:14:34.670Z,88.73
2018-07-01T04:15:34.655Z,89.02
2018-07-01T04:16:34.637Z,88.93
2018-07-01T04:17:34.620Z,89.02
2018-07-01T04:18:34.602Z,88.54
2018-07-01T04:19:34.587Z,88.83
2018-07-01T04:20:34.571Z,88.83
2018-07-01T04:21:34.553Z,88.93
2018-07-01T04:22:35.285Z,88.49
2018-07-01T04:23:34.517Z,88.83
2018-07-01T04:24:34.501Z,88.83
2018-07-01T04:25:34.484Z,88.88
2018-07-01T04:26:34.466Z,88.54
2018-07-01T04:27:34.454Z,88.79
2018-07-01T04:28:34.433Z,88.83
2018-07-01T04:29:34.416Z,89.12
2018-07-01T04:30:34.398Z,89.12
2018-07-01T04:31:34.383Z,89.69
2018-07-01T04:32:34.369Z,89.31
2018-07-01T04:33:34.352Z,89.12
2018-07-01T04:34:34.331Z,89.07
2018-07-01T04:35:34.313Z,88.88
2018-07-01T04:36:34.299Z,88.93
2018-07-01T04:37:34.280Z,89.60
2018-07-01T04:38:34.261Z,89.40
2018-07-01T04:39:34.246Z,89.40
2018-07-01T04:40:34.228Z,89.31
2018-07-01T04:41:34.213Z,89.40
2018-07-01T04:42:34.200Z,89.22
2018-07-01T04:43:34.177Z,89.31
2018-07-01T04:44:34.162Z,89.98
2018-07-01T04:45:34.145Z,90.17
2018-07-01T04:46:34.125Z,90.08
2018-07-01T04:47:34.109Z,89.50
2018-07-01T04:48:34.092Z,89.79
2018-07-01T04:49:34.076Z,89.69
2018-07-01T04:50:34.062Z,89.50
2018-07-01T04:51:34.041Z,89.79
2018-07-01T04:52:34.025Z,89.79
2018-07-01T04:53:34.007Z,89.50
2018-07-01T04:54:33.989Z,90.75
2018-07-01T04:55:33.972Z,90.17
2018-07-01T04:56:33.958Z,89.69
2018-07-01T04:57:33.939Z,90.08
2018-07-01T04:58:33.921Z,90.56
2018-07-01T04:59:33.905Z,90.08
2018-07-01T05:00:33.888Z,90.27
2018-07-01T05:01:33.871Z,90.08
2018-07-01T05:02:34.001Z,89.98
2018-07-01T05:03:33.836Z,90.27
2018-07-01T05:04:33.819Z,90.37
2018-07-01T05:05:33.802Z,90.27
2018-07-01T05:06:33.785Z,89.89
2018-07-01T05:07:33.769Z,90.37
2018-07-01T05:08:33.751Z,90.17
2018-07-01T05:09:33.736Z,90.46
2018-07-01T05:10:33.717Z,90.37
2018-07-01T05:11:33.701Z,90.37
2018-07-01T05:12:33.683Z,90.08
2018-07-01T05:13:33.667Z,90.66
2018-07-01T05:14:33.649Z,90.27
2018-07-01T05:15:33.632Z,90.17
2018-07-01T05:16:33.618Z,90.37
2018-07-01T05:17:33.598Z,90.17
2018-07-01T05:18:33.581Z,90.27
2018-07-01T05:19:33.564Z,89.89
2018-07-01T05:20:33.547Z,90.37
2018-07-01T05:21:34.281Z,90.46
2018-07-01T05:22:33.515Z,89.98
2018-07-01T05:23:33.497Z,89.79
2018-07-01T05:24:33.482Z,90.27
2018-07-01T05:25:33.464Z,90.17
2018-07-01T05:26:33.446Z,90.17
2018-07-01T05:27:33.460Z,90.27
2018-07-01T05:28:33.413Z,89.60
2018-07-01T05:29:33.397Z,89.79
2018-07-01T05:30:33.381Z,89.50
2018-07-01T05:31:33.362Z,89.50
2018-07-01T05:32:33.348Z,89.83
2018-07-01T05:33:33.328Z,89.45
2018-07-01T05:34:33.310Z,89.50
2018-07-01T05:35:33.293Z,89.79
2018-07-01T05:36:33.289Z,89.54
2018-07-01T05:37:43.527Z,89.50
2018-07-01T05:38:33.243Z,89.50
2018-07-01T05:39:33.225Z,89.40
2018-07-01T05:40:33.230Z,89.31
2018-07-01T05:41:33.194Z,89.69
2018-07-01T05:42:33.180Z,89.83
2018-07-01T05:43:33.159Z,89.16
2018-07-01T05:44:33.144Z,89.83
2018-07-01T05:45:33.127Z,89.83
2018-07-01T05:46:33.109Z,88.54
2018-07-01T05:47:33.092Z,89.16
2018-07-01T05:48:33.074Z,89.02
2018-07-01T05:49:33.058Z,88.59
2018-07-01T05:50:33.041Z,89.36
2018-07-01T05:51:33.024Z,89.26
2018-07-01T05:52:33.010Z,88.78
2018-07-01T05:53:32.995Z,88.78
2018-07-01T05:54:32.975Z,89.74
2018-07-01T05:55:32.957Z,89.36
2018-07-01T05:56:32.941Z,89.36
2018-07-01T05:57:32.924Z,88.59
2018-07-01T05:58:32.906Z,88.01
2018-07-01T05:59:32.889Z,88.59
2018-07-01T06:00:32.876Z,88.68
2018-07-01T06:01:32.858Z,88.59
2018-07-01T06:02:32.840Z,88.39
2018-07-01T06:03:32.823Z,88.20
2018-07-01T06:04:32.807Z,88.59
2018-07-01T06:05:32.791Z,88.59
2018-07-01T06:06:32.773Z,89.16
2018-07-01T06:07:32.756Z,88.20
2018-07-01T06:08:32.743Z,88.68
2018-07-01T06:09:32.723Z,89.16
2018-07-01T06:10:32.706Z,88.34
2018-07-01T06:11:32.691Z,88.44
2018-07-01T06:12:32.673Z,87.96
2018-07-01T06:13:33.410Z,87.96
2018-07-01T06:14:32.640Z,87.86
2018-07-01T06:15:32.624Z,88.06
2018-07-01T06:16:32.641Z,88.63
2018-07-01T06:17:32.590Z,88.34
2018-07-01T06:18:32.575Z,88.24
2018-07-01T06:19:32.560Z,88.06
2018-07-01T06:20:32.541Z,87.76
2018-07-01T06:21:32.524Z,87.57
2018-07-01T06:22:32.508Z,87.38
2018-07-01T06:23:32.491Z,87.38
2018-07-01T06:24:32.504Z,88.34
2018-07-01T06:25:32.459Z,87.48
2018-07-01T06:26:32.441Z,87.86
2018-07-01T06:27:32.425Z,87.48
2018-07-01T06:28:32.411Z,87.62
2018-07-01T06:29:32.393Z,88.29
2018-07-01T06:30:32.375Z,88.39
2018-07-01T06:31:32.361Z,88.67
2018-07-01T06:32:32.345Z,88.39
2018-07-01T06:33:32.327Z,88.82
2018-07-01T06:34:32.314Z,88.82
2018-07-01T06:35:32.294Z,88.48
2018-07-01T06:36:32.283Z,88.24
2018-07-01T06:37:32.261Z,88.06
2018-07-01T06:38:32.244Z,88.24
2018-07-01T06:39:32.229Z,88.19
2018-07-01T06:40:32.212Z,88.77
2018-07-01T06:41:32.195Z,88.10
2018-07-01T06:42:32.180Z,88.19
2018-07-01T06:43:32.164Z,88.00
2018-07-01T06:44:32.148Z,88.29
2018-07-01T06:45:32.130Z,87.62
2018-07-01T06:46:32.113Z,88.29
2018-07-01T06:47:32.098Z,87.71
2018-07-01T06:48:32.083Z,88.29
2018-07-01T06:49:32.194Z,88.00
2018-07-01T06:50:32.049Z,87.90
2018-07-01T06:51:32.032Z,88.10
2018-07-01T06:52:32.017Z,87.52
2018-07-01T06:53:32.000Z,88.00
2018-07-01T06:54:31.987Z,88.10
2018-07-01T06:55:31.968Z,87.52
2018-07-01T06:56:31.956Z,88.48
2018-07-01T06:57:31.936Z,87.46
2018-07-01T06:58:31.919Z,86.79
2018-07-01T06:59:31.903Z,87.46
2018-07-01T07:00:31.888Z,88.14
2018-07-01T07:01:31.872Z,87.18
2018-07-01T07:02:31.882Z,86.22
2018-07-01T07:03:31.838Z,86.51
2018-07-01T07:04:31.823Z,86.51
2018-07-01T07:05:31.806Z,87.37
2018-07-01T07:06:31.789Z,86.12
2018-07-01T07:07:31.776Z,86.12
2018-07-01T07:08:31.759Z,86.89
2018-07-01T07:09:31.742Z,86.12
2018-07-01T07:10:31.727Z,86.60
2018-07-01T07:11:31.711Z,86.02
2018-07-01T07:12:31.695Z,85.68
2018-07-01T07:13:31.678Z,86.26
2018-07-01T07:14:31.661Z,86.35
2018-07-01T07:15:31.646Z,85.49
2018-07-01T07:16:31.630Z,86.26
2018-07-01T07:17:31.614Z,85.97
2018-07-01T07:18:31.598Z,85.68
2018-07-01T07:19:31.582Z,86.35
2018-07-01T07:20:31.566Z,84.81
2018-07-01T07:21:32.302Z,85.20
2018-07-01T07:22:31.534Z,85.49
2018-07-01T07:23:31.518Z,85.00
2018-07-01T07:24:31.530Z,84.91
2018-07-01T07:25:31.492Z,84.81
2018-07-01T07:26:31.470Z,85.20
2018-07-01T07:27:31.456Z,85.20
2018-07-01T07:28:31.441Z,84.91
2018-07-01T07:29:31.425Z,85.30
2018-07-01T07:30:31.408Z,85.10
2018-07-01T07:31:31.394Z,85.00
2018-07-01T07:32:31.378Z,84.72
2018-07-01T07:33:31.362Z,85.00
2018-07-01T07:34:31.346Z,85.00
2018-07-01T07:35:31.331Z,85.00
2018-07-01T07:36:31.314Z,85.20
2018-07-01T07:37:31.299Z,84.81
2018-07-01T07:38:31.733Z,84.14
2018-07-01T07:39:31.267Z,84.53
2018-07-01T07:40:31.250Z,84.43
2018-07-01T07:41:31.235Z,84.53
2018-07-01T07:42:31.219Z,84.05
2018-07-01T07:43:31.205Z,84.43
2018-07-01T07:44:31.189Z,84.56
2018-07-01T07:45:31.174Z,84.66
2018-07-01T07:46:31.156Z,84.76
2018-07-01T07:47:31.142Z,84.38
2018-07-01T07:48:31.125Z,84.47
2018-07-01T07:49:31.109Z,84.09
2018-07-01T07:50:31.095Z,84.28
2018-07-01T07:51:31.107Z,84.70
2018-07-01T07:52:31.065Z,84.70
2018-07-01T07:53:31.799Z,83.84
2018-07-01T07:54:31.030Z,84.12
2018-07-01T07:55:31.017Z,83.45
2018-07-01T07:56:31.001Z,83.45
2018-07-01T07:57:30.986Z,83.74
2018-07-01T07:58:30.973Z,83.45
2018-07-01T07:59:30.955Z,83.64
2018-07-01T08:00:30.938Z,84.32
2018-07-01T08:01:30.924Z,83.94
2018-07-01T08:02:30.908Z,83.50
2018-07-01T08:03:30.891Z,83.40
2018-07-01T08:04:30.877Z,82.82
2018-07-01T08:05:30.861Z,82.87
2018-07-01T08:06:30.845Z,83.59
2018-07-01T08:07:30.832Z,83.16
2018-07-01T08:08:30.816Z,83.45
2018-07-01T08:09:30.800Z,84.27
2018-07-01T08:10:30.784Z,83.69
2018-07-01T08:11:30.773Z,83.40
2018-07-01T08:12:30.755Z,83.01
2018-07-01T08:13:30.740Z,83.53
2018-07-01T08:14:30.724Z,83.25
2018-07-01T08:15:30.709Z,83.15
2018-07-01T08:16:30.694Z,82.67
2018-07-01T08:17:30.678Z,82.96
2018-07-01T08:18:30.664Z,83.25
2018-07-01T08:19:30.648Z,83.15
2018-07-01T08:20:31.383Z,81.90
2018-07-01T08:21:30.619Z,82.28
2018-07-01T08:22:30.604Z,82.38
2018-07-01T08:23:30.589Z,83.05
2018-07-01T08:24:30.573Z,82.57
2018-07-01T08:25:30.558Z,82.38
2018-07-01T08:26:30.543Z,81.60
2018-07-01T08:27:30.528Z,81.99
2018-07-01T08:28:30.514Z,81.99
2018-07-01T08:29:30.500Z,81.51
2018-07-01T08:30:30.485Z,82.28
2018-07-01T08:31:30.469Z,82.67
2018-07-01T08:32:30.455Z,82.96
2018-07-01T08:33:30.448Z,82.96
2018-07-01T08:34:30.464Z,82.38
2018-07-01T08:35:30.411Z,82.48
2018-07-01T08:36:30.396Z,83.48
2018-07-01T08:37:30.385Z,84.25
2018-07-01T08:38:30.366Z,83.67
2018-07-01T08:39:30.351Z,82.61
2018-07-01T08:40:30.337Z,81.93
2018-07-01T08:41:32.574Z,81.84
2018-07-01T08:42:30.307Z,81.84
2018-07-01T08:43:30.292Z,82.13
2018-07-01T08:44:30.278Z,83.19
2018-07-01T08:45:30.264Z,81.88
2018-07-01T08:46:30.248Z,81.49
2018-07-01T08:47:31.022Z,80.91
2018-07-01T08:48:30.219Z,81.49
2018-07-01T08:49:30.206Z,80.91
2018-07-01T08:50:30.190Z,82.11
2018-07-01T08:51:30.176Z,82.02
2018-07-01T08:52:30.211Z,81.73
2018-07-01T08:53:30.146Z,82.02
2018-07-01T08:54:30.131Z,80.08
2018-07-01T08:55:30.117Z,80.18
2018-07-01T08:56:30.105Z,81.01
2018-07-01T08:57:30.091Z,80.82
2018-07-01T08:58:30.074Z,81.98
2018-07-01T08:59:30.063Z,81.78
2018-07-01T09:00:30.049Z,81.24
2018-07-01T09:01:30.032Z,80.66
2018-07-01T09:02:30.025Z,80.47
2018-07-01T09:03:30.006Z,79.95
2018-07-01T09:04:29.989Z,80.76
2018-07-01T09:05:29.975Z,80.57
2018-07-01T09:06:29.960Z,80.53
2018-07-01T09:07:29.945Z,80.43
2018-07-01T09:08:29.950Z,80.91
2018-07-01T09:09:29.921Z,80.95
2018-07-01T09:10:29.902Z,80.95
2018-07-01T09:11:29.889Z,80.57
2018-07-01T09:12:29.874Z,80.22
2018-07-01T09:13:29.860Z,80.51
2018-07-01T09:14:29.847Z,80.51
2018-07-01T09:15:29.831Z,79.54
2018-07-01T09:16:29.819Z,79.99
2018-07-01T09:17:29.805Z,81.96
2018-07-01T09:18:29.789Z,80.99
2018-07-01T09:19:34.283Z,82.06
2018-07-01T09:20:29.763Z,81.52
2018-07-01T09:21:29.749Z,79.06
2018-07-01T09:22:29.734Z,79.20
2018-07-01T09:23:29.725Z,78.81
2018-07-01T09:24:29.705Z,80.46
2018-07-01T09:25:29.693Z,80.55
2018-07-01T09:26:29.678Z,79.20
2018-07-01T09:27:29.663Z,78.94
2018-07-01T09:28:29.649Z,78.17
2018-07-01T09:29:29.637Z,77.75
2018-07-01T09:30:29.624Z,77.75
2018-07-01T09:31:29.609Z,78.52
2018-07-01T09:32:29.595Z,78.61
2018-07-01T09:33:29.581Z,78.91
2018-07-01T09:34:29.684Z,78.33
2018-07-01T09:35:29.554Z,77.69
2018-07-01T09:36:29.540Z,78.08
2018-07-01T09:37:29.526Z,77.78
2018-07-01T09:38:29.511Z,77.59
2018-07-01T09:39:29.498Z,77.78
2018-07-01T09:40:29.485Z,78.08
2018-07-01T09:41:29.473Z,78.27
2018-07-01T09:42:29.459Z,77.69
2018-07-01T09:43:29.497Z,78.11
2018-07-01T09:44:29.430Z,76.76
2018-07-01T09:45:29.418Z,76.91
2018-07-01T09:46:29.403Z,76.91
2018-07-01T09:47:29.390Z,76.66
2018-07-01T09:48:29.375Z,77.24
2018-07-01T09:49:29.365Z,76.46
2018-07-01T09:50:29.429Z,77.05
2018-07-01T09:51:29.336Z,77.73
2018-07-01T09:52:30.824Z,76.86
2018-07-01T09:53:29.309Z,76.86
2018-07-01T09:54:29.301Z,76.76
2018-07-01T09:55:29.282Z,76.86
2018-07-01T09:56:29.269Z,76.95
2018-07-01T09:57:29.255Z,76.95
2018-07-01T09:58:29.993Z,76.12
2018-07-01T09:59:29.228Z,75.31
2018-07-01T10:00:29.215Z,76.95
2018-07-01T10:01:29.203Z,76.56
2018-07-01T10:02:29.189Z,76.37
2018-07-01T10:03:29.175Z,77.14
2018-07-01T10:04:29.166Z,76.95
2018-07-01T10:05:29.149Z,77.14
2018-07-01T10:06:29.135Z,76.56
2018-07-01T10:07:29.124Z,77.73
2018-07-01T10:08:29.110Z,78.02
2018-07-01T10:09:29.096Z,78.34
2018-07-01T10:10:29.083Z,77.09
2018-07-01T10:11:29.069Z,76.89
2018-07-01T10:12:29.057Z,77.09
2018-07-01T10:13:29.043Z,76.79
2018-07-01T10:14:29.029Z,76.99
2018-07-01T10:15:29.018Z,76.99
2018-07-01T10:16:29.005Z,76.70
2018-07-01T10:17:28.995Z,76.06
2018-07-01T10:18:28.978Z,77.09
2018-07-01T10:19:29.715Z,77.12
2018-07-01T10:20:28.951Z,76.45
2018-07-01T10:21:28.938Z,76.35
2018-07-01T10:22:28.924Z,76.45
2018-07-01T10:23:28.911Z,75.67
2018-07-01T10:24:28.900Z,76.25
2018-07-01T10:25:28.887Z,75.57
2018-07-01T10:26:28.886Z,75.67
2018-07-01T10:27:28.860Z,75.57
2018-07-01T10:28:28.849Z,75.24
2018-07-01T10:29:28.835Z,76.25
2018-07-01T10:30:28.820Z,76.35
2018-07-01T10:31:28.807Z,75.48
2018-07-01T10:32:28.823Z,76.15
2018-07-01T10:33:28.783Z,76.45
2018-07-01T10:34:28.768Z,76.06
2018-07-01T10:35:28.757Z,75.48
2018-07-01T10:36:28.744Z,76.25
2018-07-01T10:37:28.738Z,76.25
2018-07-01T10:38:28.720Z,75.71
2018-07-01T10:39:28.706Z,75.61
2018-07-01T10:40:28.695Z,75.61
2018-07-01T10:41:28.681Z,75.51
2018-07-01T10:42:28.666Z,75.71
2018-07-01T10:43:28.653Z,76.52
2018-07-01T10:44:28.642Z,74.77
2018-07-01T10:45:28.629Z,74.97
2018-07-01T10:46:28.615Z,74.68
2018-07-01T10:47:28.603Z,74.71
2018-07-01T10:48:28.589Z,74.04
2018-07-01T10:49:28.577Z,73.03
2018-07-01T10:50:30.067Z,74.64
2018-07-01T10:51:28.741Z,74.64
2018-07-01T10:52:28.543Z,75.03
2018-07-01T10:53:28.527Z,76.39
2018-07-01T10:54:28.514Z,74.68
2018-07-01T10:55:28.502Z,75.61
2018-07-01T10:56:29.241Z,75.74
2018-07-01T10:57:28.480Z,75.03
2018-07-01T10:58:28.464Z,74.87
2018-07-01T10:59:28.452Z,74.19
2018-07-01T11:00:28.439Z,74.81
2018-07-01T11:01:28.426Z,74.62
2018-07-01T11:02:28.413Z,73.55
2018-07-01T11:03:28.402Z,75.01
2018-07-01T11:04:28.390Z,74.33
2018-07-01T11:05:28.387Z,74.81
2018-07-01T11:06:28.365Z,74.91
2018-07-01T11:07:28.354Z,74.91
2018-07-01T11:08:28.341Z,73.16
2018-07-01T11:09:28.329Z,74.52
2018-07-01T11:10:28.314Z,74.23
2018-07-01T11:11:28.307Z,73.80
2018-07-01T11:12:28.291Z,74.19
2018-07-01T11:13:28.278Z,74.91
2018-07-01T11:14:28.266Z,74.62
2018-07-01T11:15:28.254Z,74.23
2018-07-01T11:16:28.241Z,74.13
2018-07-01T11:17:28.229Z,74.71
2018-07-01T11:18:28.215Z,73.39
2018-07-01T11:19:28.204Z,74.85
2018-07-01T11:20:28.192Z,73.30
2018-07-01T11:21:28.181Z,73.68
2018-07-01T11:22:28.170Z,73.00
2018-07-01T11:23:28.156Z,72.19
2018-07-01T11:24:28.144Z,73.39
2018-07-01T11:25:28.136Z,73.58
2018-07-01T11:26:28.120Z,73.20
2018-07-01T11:27:28.167Z,73.10
2018-07-01T11:28:28.095Z,72.91
2018-07-01T11:29:28.083Z,73.58
2018-07-01T11:30:28.070Z,73.00
2018-07-01T11:31:28.059Z,74.46
2018-07-01T11:32:28.048Z,72.85
2018-07-01T11:33:28.035Z,73.04
2018-07-01T11:34:28.022Z,73.20
2018-07-01T11:35:28.011Z,74.98
2018-07-01T11:36:27.999Z,73.24
2018-07-01T11:37:27.987Z,72.45
2018-07-01T11:38:27.974Z,71.97
2018-07-01T11:39:27.962Z,71.97
2018-07-01T11:40:27.950Z,71.97
2018-07-01T11:41:27.938Z,71.64
2018-07-01T11:42:27.979Z,72.71
2018-07-01T11:43:27.915Z,73.33
2018-07-01T11:44:27.907Z,72.75
2018-07-01T11:45:27.892Z,73.24
2018-07-01T11:46:27.878Z,73.43
2018-07-01T11:47:27.868Z,72.27
2018-07-01T11:48:27.855Z,71.88
2018-07-01T11:49:27.843Z,71.81
2018-07-01T11:50:27.831Z,71.78
2018-07-01T11:51:27.820Z,73.24
2018-07-01T11:52:27.860Z,72.69
2018-07-01T11:53:27.798Z,72.11
2018-07-01T11:54:27.784Z,71.33
2018-07-01T11:55:27.772Z,71.88
2018-07-01T11:56:27.761Z,71.29
2018-07-01T11:57:27.751Z,71.39
2018-07-01T11:58:27.737Z,70.65
2018-07-01T11:59:27.726Z,71.62
2018-07-01T12:00:27.717Z,71.23
2018-07-01T12:01:27.703Z,71.03
2018-07-01T12:02:27.691Z,71.52
2018-07-01T12:03:27.679Z,71.81
2018-07-01T12:04:27.668Z,70.94
2018-07-01T12:05:28.435Z,71.62
2018-07-01T12:06:27.648Z,70.84
2018-07-01T12:07:27.633Z,70.55
2018-07-01T12:08:27.622Z,70.16
2018-07-01T12:09:27.610Z,70.45
2018-07-01T12:10:27.598Z,70.55
2018-07-01T12:11:27.589Z,70.16
2018-07-01T12:12:27.577Z,70.65
2018-07-01T12:13:27.564Z,71.26
2018-07-01T12:14:27.554Z,69.32
2018-07-01T12:15:27.542Z,69.71
2018-07-01T12:16:27.530Z,69.90
2018-07-01T12:17:27.518Z,70.00
2018-07-01T12:18:27.507Z,70.00
2018-07-01T12:19:27.494Z,69.81
2018-07-01T12:20:27.487Z,70.58
2018-07-01T12:21:27.473Z,69.09
2018-07-01T12:22:27.460Z,68.99
2018-07-01T12:23:27.614Z,69.51
2018-07-01T12:24:27.438Z,68.74
2018-07-01T12:25:27.428Z,68.84
2018-07-01T12:26:27.417Z,67.99
2018-07-01T12:27:27.405Z,68.09
2018-07-01T12:28:27.396Z,67.41
2018-07-01T12:29:27.381Z,66.93
2018-07-01T12:30:27.370Z,67.21
2018-07-01T12:31:27.359Z,67.41
2018-07-01T12:32:27.348Z,67.96
2018-07-01T12:33:27.337Z,66.53
2018-07-01T12:34:27.324Z,67.18
2018-07-01T12:35:27.314Z,66.79
2018-07-01T12:36:27.302Z,67.31
2018-07-01T12:37:27.293Z,66.21
2018-07-01T12:38:27.279Z,67.21
2018-07-01T12:39:27.269Z,66.24
2018-07-01T12:40:27.257Z,66.08
2018-07-01T12:41:27.246Z,66.27
2018-07-01T12:42:27.321Z,65.50
2018-07-01T12:43:27.224Z,65.40
2018-07-01T12:44:27.214Z,65.27
2018-07-01T12:45:27.203Z,65.27
2018-07-01T12:46:27.191Z,65.75
2018-07-01T12:47:27.180Z,66.14
2018-07-01T12:48:27.171Z,67.31
2018-07-01T12:49:27.161Z,66.05
2018-07-01T12:50:27.147Z,66.34
2018-07-01T12:51:27.136Z,66.08
2018-07-01T12:52:27.126Z,64.91